createdAt,value
2019-01-20T00:00:11.841Z,9.50
2019-01-20T00:01:11.803Z,8.60
2019-01-20T00:02:11.775Z,8.80
2019-01-20T00:03:11.749Z,9.40
2019-01-20T00:04:11.718Z,9.40
2019-01-20T00:05:11.694Z,9.40
2019-01-20T00:06:11.670Z,9.40
2019-01-20T00:07:11.638Z,9.20
2019-01-20T00:08:11.612Z,10.30
2019-01-20T00:09:11.593Z,9.10
2019-01-20T00:10:11.553Z,9.20
2019-01-20T00:11:16.537Z,9.60
2019-01-20T00:12:11.506Z,9.30
2019-01-20T00:13:11.469Z,9.50
2019-01-20T00:14:11.444Z,9.70
2019-01-20T00:15:11.417Z,9.50
2019-01-20T00:16:11.386Z,9.10
2019-01-20T00:17:11.357Z,9.80
2019-01-20T00:18:11.330Z,9.40
2019-01-20T00:19:11.302Z,8.90
2019-01-20T00:20:11.302Z,8.70
2019-01-20T00:21:11.252Z,9.00
2019-01-20T00:22:11.227Z,9.30
2019-01-20T00:23:11.191Z,9.10
2019-01-20T00:24:11.164Z,9.00
2019-01-20T00:25:11.240Z,9.20
2019-01-20T00:26:11.108Z,8.90
2019-01-20T00:27:11.078Z,9.10
2019-01-20T00:28:11.055Z,9.30
2019-01-20T00:29:11.027Z,9.70
2019-01-20T00:30:10.997Z,9.40
2019-01-20T00:31:10.968Z,10.10
2019-01-20T00:32:10.942Z,9.90
2019-01-20T00:33:10.911Z,10.10
2019-01-20T00:34:10.970Z,10.00
2019-01-20T00:35:10.870Z,9.40
2019-01-20T00:36:10.836Z,9.70
2019-01-20T00:37:10.803Z,10.20
2019-01-20T00:38:10.772Z,9.30
2019-01-20T00:39:10.746Z,9.60
2019-01-20T00:40:10.718Z,9.60
2019-01-20T00:41:10.691Z,10.80
2019-01-20T00:42:10.661Z,9.70
2019-01-20T00:43:10.635Z,10.00
2019-01-20T00:44:10.606Z,9.90
2019-01-20T00:45:10.583Z,10.10
2019-01-20T00:46:10.553Z,9.60
2019-01-20T00:47:10.519Z,10.00
2019-01-20T00:48:10.496Z,9.50
2019-01-20T00:49:10.464Z,9.10
2019-01-20T00:50:10.436Z,9.30
2019-01-20T00:51:10.408Z,9.50
2019-01-20T00:52:10.380Z,9.70
2019-01-20T00:53:10.352Z,9.60
2019-01-20T00:54:10.326Z,9.90
2019-01-20T00:55:10.302Z,9.10
2019-01-20T00:56:10.270Z,9.80
2019-01-20T00:57:10.242Z,9.70
2019-01-20T00:58:10.213Z,9.60
2019-01-20T00:59:10.186Z,10.00
2019-01-20T01:00:10.156Z,9.40
2019-01-20T01:01:10.128Z,10.30
2019-01-20T01:02:10.100Z,10.90
2019-01-20T01:03:10.071Z,9.70
2019-01-20T01:04:10.046Z,9.70
2019-01-20T01:05:10.017Z,10.10
2019-01-20T01:06:09.992Z,9.50
2019-01-20T01:07:09.961Z,10.00
2019-01-20T01:08:09.937Z,9.90
2019-01-20T01:09:09.906Z,9.70
2019-01-20T01:10:09.876Z,9.80
2019-01-20T01:11:09.849Z,9.50
2019-01-20T01:12:09.820Z,9.40
2019-01-20T01:13:09.794Z,9.90
2019-01-20T01:14:09.767Z,9.60
2019-01-20T01:15:09.736Z,9.50
2019-01-20T01:16:09.708Z,10.50
2019-01-20T01:17:09.679Z,9.80
2019-01-20T01:18:09.664Z,10.20
2019-01-20T01:19:09.624Z,10.20
2019-01-20T01:20:09.597Z,9.40
2019-01-20T01:21:09.567Z,10.10
2019-01-20T01:22:09.539Z,10.10
2019-01-20T01:23:09.512Z,9.80
2019-01-20T01:24:09.484Z,9.40
2019-01-20T01:25:09.455Z,9.40
2019-01-20T01:26:09.426Z,9.10
2019-01-20T01:27:09.400Z,9.60
2019-01-20T01:28:09.383Z,10.00
2019-01-20T01:29:09.342Z,10.70
2019-01-20T01:30:09.312Z,9.60
2019-01-20T01:31:09.293Z,10.10
2019-01-20T01:32:09.262Z,9.50
2019-01-20T01:33:09.230Z,9.80
2019-01-20T01:34:09.201Z,10.30
2019-01-20T01:35:09.173Z,9.30
2019-01-20T01:36:09.143Z,10.40
2019-01-20T01:37:09.115Z,9.60
2019-01-20T01:38:09.096Z,10.60
2019-01-20T01:39:09.060Z,10.10
2019-01-20T01:40:09.042Z,10.20
2019-01-20T01:41:09.001Z,10.40
2019-01-20T01:42:08.972Z,9.90
2019-01-20T01:43:08.947Z,9.90
2019-01-20T01:44:08.924Z,10.30
2019-01-20T01:45:08.894Z,9.50
2019-01-20T01:46:08.867Z,9.30
2019-01-20T01:47:08.835Z,9.60
2019-01-20T01:48:08.809Z,10.90
2019-01-20T01:49:08.777Z,9.80
2019-01-20T01:50:08.750Z,10.50
2019-01-20T01:51:08.722Z,11.40
2019-01-20T01:52:08.692Z,10.20
2019-01-20T01:53:08.662Z,10.10
2019-01-20T01:54:08.635Z,9.60
2019-01-20T01:55:08.608Z,10.70
2019-01-20T01:56:08.590Z,10.50
2019-01-20T01:57:08.550Z,10.60
2019-01-20T01:58:08.525Z,10.30
2019-01-20T01:59:08.495Z,10.40
2019-01-20T02:00:08.466Z,10.20
2019-01-20T02:01:08.445Z,12.00
2019-01-20T02:02:08.408Z,11.60
2019-01-20T02:03:08.383Z,11.60
2019-01-20T02:04:08.366Z,12.50
2019-01-20T02:05:08.336Z,15.80
2019-01-20T02:06:08.303Z,20.80
2019-01-20T02:07:08.272Z,22.30
2019-01-20T02:08:08.241Z,21.10
2019-01-20T02:09:08.218Z,21.50
2019-01-20T02:10:08.188Z,20.30
2019-01-20T02:11:08.154Z,21.00
2019-01-20T02:12:08.127Z,19.40
2019-01-20T02:13:08.102Z,18.40
2019-01-20T02:14:08.071Z,15.80
2019-01-20T02:15:08.042Z,15.00
2019-01-20T02:16:08.014Z,14.10
2019-01-20T02:17:07.984Z,13.20
2019-01-20T02:18:07.955Z,13.50
2019-01-20T02:19:07.926Z,13.10
2019-01-20T02:20:07.907Z,12.90
2019-01-20T02:21:07.872Z,13.90
2019-01-20T02:22:07.843Z,12.50
2019-01-20T02:23:07.815Z,12.90
2019-01-20T02:24:07.795Z,13.00
2019-01-20T02:25:07.757Z,12.80
2019-01-20T02:26:07.729Z,12.60
2019-01-20T02:27:07.701Z,12.70
2019-01-20T02:28:07.671Z,12.60
2019-01-20T02:29:07.643Z,12.70
2019-01-20T02:30:07.632Z,12.10
2019-01-20T02:31:07.587Z,12.30
2019-01-20T02:32:07.560Z,12.20
2019-01-20T02:33:07.532Z,12.00
2019-01-20T02:34:07.501Z,11.40
2019-01-20T02:35:07.473Z,11.60
2019-01-20T02:36:07.444Z,11.60
2019-01-20T02:37:07.417Z,11.50
2019-01-20T02:38:07.391Z,12.10
2019-01-20T02:39:07.360Z,11.70
2019-01-20T02:40:07.333Z,10.90
2019-01-20T02:41:07.303Z,12.80
2019-01-20T02:42:07.275Z,12.70
2019-01-20T02:43:07.247Z,11.30
2019-01-20T02:44:07.229Z,11.10
2019-01-20T02:45:07.191Z,10.90
2019-01-20T02:46:07.162Z,10.70
2019-01-20T02:47:07.136Z,10.10
2019-01-20T02:48:07.102Z,10.10
2019-01-20T02:49:07.077Z,10.90
2019-01-20T02:50:07.049Z,10.60
2019-01-20T02:51:07.017Z,10.70
2019-01-20T02:52:06.990Z,11.30
2019-01-20T02:53:06.963Z,10.60
2019-01-20T02:54:06.947Z,10.30
2019-01-20T02:55:06.904Z,10.60
2019-01-20T02:56:06.881Z,10.70
2019-01-20T02:57:06.846Z,10.10
2019-01-20T02:58:06.822Z,9.80
2019-01-20T02:59:06.813Z,10.10
2019-01-20T03:00:06.763Z,11.00
2019-01-20T03:01:06.735Z,10.90
2019-01-20T03:02:06.705Z,10.90
2019-01-20T03:03:06.676Z,10.60
2019-01-20T03:04:06.651Z,11.60
2019-01-20T03:05:06.619Z,9.70
2019-01-20T03:06:06.590Z,10.10
2019-01-20T03:07:06.564Z,10.00
2019-01-20T03:08:06.535Z,9.70
2019-01-20T03:09:06.506Z,9.20
2019-01-20T03:10:06.479Z,8.90
2019-01-20T03:11:06.457Z,9.90
2019-01-20T03:12:06.424Z,10.90
2019-01-20T03:13:06.392Z,10.70
2019-01-20T03:14:06.364Z,9.60
2019-01-20T03:15:06.336Z,9.20
2019-01-20T03:16:06.316Z,9.70
2019-01-20T03:17:06.283Z,10.20
2019-01-20T03:18:06.257Z,9.30
2019-01-20T03:19:06.221Z,10.10
2019-01-20T03:20:06.193Z,9.00
2019-01-20T03:21:06.165Z,10.10
2019-01-20T03:22:06.137Z,9.30
2019-01-20T03:23:06.109Z,9.80
2019-01-20T03:24:06.084Z,9.20
2019-01-20T03:25:06.051Z,9.80
2019-01-20T03:26:06.024Z,9.20
2019-01-20T03:27:06.003Z,10.00
2019-01-20T03:28:05.968Z,9.70
2019-01-20T03:29:05.940Z,9.30
2019-01-20T03:30:05.933Z,10.40
2019-01-20T03:31:05.882Z,10.40
2019-01-20T03:32:05.857Z,9.60
2019-01-20T03:33:05.824Z,9.30
2019-01-20T03:34:05.802Z,9.80
2019-01-20T03:35:05.767Z,9.60
2019-01-20T03:36:05.737Z,10.10
2019-01-20T03:37:05.708Z,9.20
2019-01-20T03:38:05.681Z,10.00
2019-01-20T03:39:05.655Z,9.00
2019-01-20T03:40:05.625Z,9.30
2019-01-20T03:41:05.595Z,9.90
2019-01-20T03:42:11.923Z,9.40
2019-01-20T03:43:05.539Z,9.60
2019-01-20T03:44:05.508Z,8.80
2019-01-20T03:45:05.484Z,9.20
2019-01-20T03:46:05.450Z,9.30
2019-01-20T03:47:05.424Z,9.60
2019-01-20T03:48:05.396Z,9.80
2019-01-20T03:49:05.366Z,9.60
2019-01-20T03:50:05.336Z,9.60
2019-01-20T03:51:05.309Z,9.70
2019-01-20T03:52:05.282Z,9.50
2019-01-20T03:53:05.253Z,10.00
2019-01-20T03:54:05.235Z,9.60
2019-01-20T03:55:05.193Z,9.20
2019-01-20T03:56:05.166Z,9.40
2019-01-20T03:57:05.137Z,9.80
2019-01-20T03:58:05.109Z,9.80
2019-01-20T03:59:05.082Z,9.10
2019-01-20T04:00:05.054Z,9.80
2019-01-20T04:01:05.025Z,9.40
2019-01-20T04:02:04.996Z,9.50
2019-01-20T04:03:04.967Z,9.80
2019-01-20T04:04:04.937Z,9.70
2019-01-20T04:05:04.909Z,9.50
2019-01-20T04:06:04.881Z,9.70
2019-01-20T04:07:04.853Z,9.20
2019-01-20T04:08:04.827Z,10.10
2019-01-20T04:09:04.802Z,9.20
2019-01-20T04:10:04.768Z,9.30
2019-01-20T04:11:04.738Z,9.80
2019-01-20T04:12:04.711Z,9.20
2019-01-20T04:13:04.680Z,9.50
2019-01-20T04:14:04.652Z,9.60
2019-01-20T04:15:04.626Z,9.80
2019-01-20T04:16:04.600Z,9.70
2019-01-20T04:17:04.572Z,9.90
2019-01-20T04:18:04.539Z,10.70
2019-01-20T04:19:04.515Z,10.00
2019-01-20T04:20:04.484Z,9.90
2019-01-20T04:21:04.454Z,10.60
2019-01-20T04:22:04.427Z,10.10
2019-01-20T04:23:04.399Z,10.50
2019-01-20T04:24:04.368Z,10.90
2019-01-20T04:25:04.338Z,10.30
2019-01-20T04:26:04.309Z,10.30
2019-01-20T04:27:04.280Z,9.40
2019-01-20T04:28:04.260Z,9.70
2019-01-20T04:29:04.226Z,9.50
2019-01-20T04:30:04.194Z,9.80
2019-01-20T04:31:04.167Z,10.00
2019-01-20T04:32:04.139Z,10.30
2019-01-20T04:33:04.113Z,10.00
2019-01-20T04:34:04.080Z,9.90
2019-01-20T04:35:04.051Z,9.80
2019-01-20T04:36:04.024Z,10.40
2019-01-20T04:37:03.994Z,10.10
2019-01-20T04:38:03.966Z,9.30
2019-01-20T04:39:03.954Z,10.20
2019-01-20T04:40:03.909Z,10.70
2019-01-20T04:41:03.880Z,10.40
2019-01-20T04:42:03.858Z,9.30
2019-01-20T04:43:03.823Z,10.40
2019-01-20T04:44:03.799Z,10.60
2019-01-20T04:45:03.767Z,11.10
2019-01-20T04:46:03.738Z,11.00
2019-01-20T04:47:03.719Z,9.80
2019-01-20T04:48:03.679Z,10.20
2019-01-20T04:49:03.650Z,9.60
2019-01-20T04:50:03.629Z,10.30
2019-01-20T04:51:03.605Z,9.90
2019-01-20T04:52:03.567Z,9.90
2019-01-20T04:53:03.537Z,9.40
2019-01-20T04:54:03.510Z,10.00
2019-01-20T04:55:03.493Z,10.00
2019-01-20T04:56:03.454Z,9.10
2019-01-20T04:57:03.424Z,10.10
2019-01-20T04:58:03.395Z,9.30
2019-01-20T04:59:03.368Z,9.80
2019-01-20T05:00:03.339Z,9.70
2019-01-20T05:01:03.308Z,9.60
2019-01-20T05:02:03.281Z,9.80
2019-01-20T05:03:03.251Z,11.20
2019-01-20T05:04:03.289Z,10.00
2019-01-20T05:05:03.194Z,9.70
2019-01-20T05:06:03.169Z,9.60
2019-01-20T05:07:03.137Z,9.40
2019-01-20T05:08:03.186Z,9.90
2019-01-20T05:09:03.084Z,10.50
2019-01-20T05:10:03.054Z,10.50
2019-01-20T05:11:03.024Z,9.80
2019-01-20T05:12:02.997Z,9.70
2019-01-20T05:13:02.965Z,10.90
2019-01-20T05:14:02.941Z,10.10
2019-01-20T05:15:02.913Z,10.00
2019-01-20T05:16:02.880Z,10.20
2019-01-20T05:17:02.850Z,10.80
2019-01-20T05:18:02.823Z,10.60
2019-01-20T05:19:02.807Z,10.20
2019-01-20T05:20:02.768Z,10.40
2019-01-20T05:21:02.738Z,11.00
2019-01-20T05:22:02.709Z,10.70
2019-01-20T05:23:02.680Z,10.70
2019-01-20T05:24:02.652Z,11.70
2019-01-20T05:25:02.626Z,11.10
2019-01-20T05:26:02.596Z,11.10
2019-01-20T05:27:02.563Z,11.40
2019-01-20T05:28:02.535Z,11.50
2019-01-20T05:29:02.506Z,12.00
2019-01-20T05:30:02.481Z,11.40
2019-01-20T05:31:02.453Z,10.60
2019-01-20T05:32:02.428Z,10.90
2019-01-20T05:33:02.392Z,10.60
2019-01-20T05:34:02.367Z,11.00
2019-01-20T05:35:02.336Z,10.50
2019-01-20T05:36:02.316Z,10.20
2019-01-20T05:37:02.278Z,10.50
2019-01-20T05:38:02.250Z,10.50
2019-01-20T05:39:02.222Z,11.60
2019-01-20T05:40:02.199Z,10.90
2019-01-20T05:41:02.177Z,11.60
2019-01-20T05:42:02.152Z,11.10
2019-01-20T05:43:02.105Z,12.00
2019-01-20T05:44:02.078Z,11.80
2019-01-20T05:45:02.050Z,11.90
2019-01-20T05:46:02.020Z,12.30
2019-01-20T05:47:01.990Z,12.10
2019-01-20T05:48:01.963Z,12.40
2019-01-20T05:49:01.938Z,11.70
2019-01-20T05:50:01.906Z,12.60
2019-01-20T05:51:01.882Z,12.10
2019-01-20T05:52:01.909Z,12.70
2019-01-20T05:53:01.819Z,12.20
2019-01-20T05:54:01.793Z,12.50
2019-01-20T05:55:01.773Z,12.50
2019-01-20T05:56:02.026Z,12.40
2019-01-20T05:57:01.703Z,12.20
2019-01-20T05:58:01.684Z,12.10
2019-01-20T05:59:01.650Z,12.00
2019-01-20T06:00:01.617Z,12.30
2019-01-20T06:01:01.591Z,11.60
2019-01-20T06:02:01.560Z,10.50
2019-01-20T06:03:01.549Z,11.90
2019-01-20T06:04:01.508Z,11.50
2019-01-20T06:05:01.473Z,11.60
2019-01-20T06:06:01.457Z,11.00
2019-01-20T06:07:01.420Z,11.30
2019-01-20T06:08:01.390Z,11.40
2019-01-20T06:09:01.364Z,11.80
2019-01-20T06:10:01.332Z,11.30
2019-01-20T06:11:01.305Z,11.50
2019-01-20T06:12:01.273Z,11.20
2019-01-20T06:13:01.252Z,11.60
2019-01-20T06:14:01.218Z,11.70
2019-01-20T06:15:01.193Z,11.40
2019-01-20T06:16:01.960Z,10.80
2019-01-20T06:17:01.144Z,11.60
2019-01-20T06:18:01.111Z,12.10
2019-01-20T06:19:01.079Z,11.30
2019-01-20T06:20:01.046Z,11.30
2019-01-20T06:21:01.015Z,11.50
2019-01-20T06:22:00.987Z,11.10
2019-01-20T06:23:00.961Z,10.10
2019-01-20T06:24:00.930Z,10.90
2019-01-20T06:25:00.900Z,10.90
2019-01-20T06:26:00.880Z,10.90
2019-01-20T06:27:00.845Z,11.00
2019-01-20T06:28:00.823Z,11.30
2019-01-20T06:29:00.790Z,10.70
2019-01-20T06:30:00.755Z,10.80
2019-01-20T06:31:00.727Z,10.60
2019-01-20T06:32:00.704Z,10.90
2019-01-20T06:33:00.672Z,10.80
2019-01-20T06:34:00.641Z,11.30
2019-01-20T06:35:00.616Z,11.00
2019-01-20T06:36:00.587Z,11.10
2019-01-20T06:37:00.556Z,10.70
2019-01-20T06:38:00.524Z,11.30
2019-01-20T06:39:00.505Z,10.30
2019-01-20T06:40:00.467Z,11.00
2019-01-20T06:41:00.441Z,10.80
2019-01-20T06:42:00.410Z,10.10
2019-01-20T06:43:02.291Z,10.50
2019-01-20T06:44:00.354Z,9.90
2019-01-20T06:45:00.369Z,11.20
2019-01-20T06:46:00.295Z,10.30
2019-01-20T06:47:01.180Z,10.70
2019-01-20T06:48:00.239Z,10.40
2019-01-20T06:49:00.209Z,9.90
2019-01-20T06:50:00.191Z,10.00
2019-01-20T06:51:00.150Z,10.20
2019-01-20T06:52:00.129Z,10.90
2019-01-20T06:53:00.095Z,10.40
2019-01-20T06:54:00.075Z,10.20
2019-01-20T06:55:00.036Z,9.90
2019-01-20T06:56:00.013Z,11.40
2019-01-20T06:56:59.979Z,10.20
2019-01-20T06:57:59.955Z,10.60
2019-01-20T06:58:59.919Z,10.90
2019-01-20T06:59:59.891Z,10.40
2019-01-20T07:00:59.866Z,10.60
2019-01-20T07:01:59.842Z,9.80
2019-01-20T07:02:59.806Z,10.30
2019-01-20T07:03:59.780Z,10.50
2019-01-20T07:04:59.747Z,10.50
2019-01-20T07:05:59.719Z,10.40
2019-01-20T07:06:59.695Z,9.80
2019-01-20T07:07:59.662Z,10.30
2019-01-20T07:08:59.631Z,10.10
2019-01-20T07:09:59.603Z,10.40
2019-01-20T07:10:59.574Z,9.40
2019-01-20T07:11:59.545Z,10.10
2019-01-20T07:12:59.517Z,10.50
2019-01-20T07:13:59.488Z,9.90
2019-01-20T07:14:59.460Z,10.20
2019-01-20T07:15:59.431Z,10.10
2019-01-20T07:16:59.405Z,10.90
2019-01-20T07:17:59.373Z,10.90
2019-01-20T07:18:59.344Z,10.10
2019-01-20T07:19:59.315Z,10.60
2019-01-20T07:20:59.296Z,11.80
2019-01-20T07:21:59.258Z,10.90
2019-01-20T07:22:59.233Z,11.80
2019-01-20T07:23:59.200Z,11.00
2019-01-20T07:24:59.172Z,11.00
2019-01-20T07:25:59.144Z,12.10
2019-01-20T07:26:59.119Z,15.00
2019-01-20T07:27:59.094Z,16.70
2019-01-20T07:28:59.056Z,17.20
2019-01-20T07:29:59.027Z,18.80
2019-01-20T07:30:58.998Z,18.00
2019-01-20T07:31:58.973Z,16.40
2019-01-20T07:32:58.948Z,16.20
2019-01-20T07:33:58.919Z,14.90
2019-01-20T07:34:58.891Z,14.80
2019-01-20T07:35:58.854Z,13.80
2019-01-20T07:36:58.827Z,15.30
2019-01-20T07:37:58.797Z,16.60
2019-01-20T07:38:58.770Z,17.10
2019-01-20T07:39:58.745Z,16.50
2019-01-20T07:40:58.712Z,16.20
2019-01-20T07:41:58.690Z,16.20
2019-01-20T07:42:58.654Z,15.70
2019-01-20T07:43:58.628Z,16.50
2019-01-20T07:44:58.595Z,14.90
2019-01-20T07:45:58.570Z,14.50
2019-01-20T07:46:58.537Z,15.30
2019-01-20T07:47:58.511Z,14.70
2019-01-20T07:48:58.484Z,14.30
2019-01-20T07:49:58.451Z,14.10
2019-01-20T07:50:58.424Z,13.90
2019-01-20T07:51:58.400Z,13.00
2019-01-20T07:52:58.372Z,12.70
2019-01-20T07:53:58.338Z,11.80
2019-01-20T07:54:58.308Z,12.20
2019-01-20T07:55:58.279Z,12.40
2019-01-20T07:56:58.257Z,12.00
2019-01-20T07:57:58.225Z,13.50
2019-01-20T07:58:58.192Z,16.80
2019-01-20T07:59:58.165Z,14.80
2019-01-20T08:00:58.133Z,12.30
2019-01-20T08:01:58.114Z,11.20
2019-01-20T08:02:58.077Z,10.70
2019-01-20T08:03:58.053Z,11.20
2019-01-20T08:04:58.019Z,12.30
2019-01-20T08:05:57.992Z,12.00
2019-01-20T08:06:57.967Z,11.40
2019-01-20T08:07:57.944Z,11.20
2019-01-20T08:08:57.908Z,12.10
2019-01-20T08:09:57.877Z,12.20
2019-01-20T08:10:57.847Z,12.40
2019-01-20T08:11:57.819Z,12.00
2019-01-20T08:12:57.787Z,11.90
2019-01-20T08:13:57.767Z,11.50
2019-01-20T08:14:57.731Z,12.00
2019-01-20T08:15:57.729Z,11.20
2019-01-20T08:16:57.675Z,12.60
2019-01-20T08:17:57.651Z,12.20
2019-01-20T08:18:57.616Z,14.10
2019-01-20T08:19:57.593Z,14.60
2019-01-20T08:20:57.565Z,12.30
2019-01-20T08:21:57.531Z,12.40
2019-01-20T08:22:57.501Z,11.40
2019-01-20T08:23:57.482Z,11.90
2019-01-20T08:24:57.452Z,11.40
2019-01-20T08:25:57.416Z,11.50
2019-01-20T08:26:57.397Z,12.50
2019-01-20T08:27:57.359Z,11.90
2019-01-20T08:28:57.330Z,12.30
2019-01-20T08:29:57.301Z,11.80
2019-01-20T08:30:57.272Z,13.40
2019-01-20T08:31:57.245Z,12.90
2019-01-20T08:32:57.221Z,12.80
2019-01-20T08:33:57.188Z,12.10
2019-01-20T08:34:57.160Z,12.10
2019-01-20T08:35:57.130Z,13.40
2019-01-20T08:36:57.101Z,12.60
2019-01-20T08:37:57.071Z,13.20
2019-01-20T08:38:57.069Z,13.30
2019-01-20T08:39:57.026Z,13.30
2019-01-20T08:40:56.984Z,13.80
2019-01-20T08:41:56.964Z,12.60
2019-01-20T08:42:56.927Z,13.70
2019-01-20T08:43:56.903Z,16.50
2019-01-20T08:44:56.878Z,16.10
2019-01-20T08:45:56.845Z,16.40
2019-01-20T08:46:56.815Z,19.80
2019-01-20T08:47:57.871Z,27.10
2019-01-20T08:48:56.758Z,24.70
2019-01-20T08:49:56.728Z,18.10
2019-01-20T08:50:56.699Z,15.60
2019-01-20T08:51:56.674Z,13.60
2019-01-20T08:52:56.643Z,14.10
2019-01-20T08:53:56.624Z,20.30
2019-01-20T08:54:56.587Z,20.00
2019-01-20T08:55:57.384Z,21.40
2019-01-20T08:56:56.534Z,17.00
2019-01-20T08:57:56.503Z,13.80
2019-01-20T08:58:56.478Z,13.10
2019-01-20T08:59:56.447Z,13.40
2019-01-20T09:00:56.424Z,12.30
2019-01-20T09:01:56.393Z,13.30
2019-01-20T09:02:56.364Z,12.90
2019-01-20T09:03:56.337Z,12.70
2019-01-20T09:04:56.314Z,13.40
2019-01-20T09:05:56.275Z,12.10
2019-01-20T09:06:56.252Z,14.90
2019-01-20T09:07:56.221Z,15.20
2019-01-20T09:08:56.191Z,13.60
2019-01-20T09:09:56.165Z,13.70
2019-01-20T09:10:56.143Z,12.50
2019-01-20T09:11:56.111Z,13.50
2019-01-20T09:12:56.082Z,13.70
2019-01-20T09:13:56.048Z,14.30
2019-01-20T09:14:56.021Z,13.60
2019-01-20T09:15:55.990Z,14.70
2019-01-20T09:16:55.968Z,14.20
2019-01-20T09:17:55.937Z,14.00
2019-01-20T09:18:55.908Z,14.80
2019-01-20T09:19:55.885Z,14.40
2019-01-20T09:20:55.850Z,15.50
2019-01-20T09:21:55.827Z,14.50
2019-01-20T09:22:55.793Z,16.60
2019-01-20T09:23:55.772Z,14.30
2019-01-20T09:24:55.748Z,14.40
2019-01-20T09:25:55.712Z,14.60
2019-01-20T09:26:55.686Z,17.20
2019-01-20T09:27:55.652Z,18.60
2019-01-20T09:28:55.629Z,17.70
2019-01-20T09:29:55.597Z,14.10
2019-01-20T09:30:55.565Z,13.30
2019-01-20T09:31:55.546Z,12.60
2019-01-20T09:32:55.510Z,11.40
2019-01-20T09:33:55.488Z,12.80
2019-01-20T09:34:55.462Z,12.60
2019-01-20T09:35:55.425Z,12.00
2019-01-20T09:36:55.395Z,11.80
2019-01-20T09:37:55.372Z,19.50
2019-01-20T09:38:55.342Z,18.70
2019-01-20T09:39:55.314Z,14.40
2019-01-20T09:40:55.282Z,22.20
2019-01-20T09:41:55.254Z,21.30
2019-01-20T09:42:55.244Z,26.20
2019-01-20T09:43:55.204Z,22.40
2019-01-20T09:44:55.176Z,19.00
2019-01-20T09:45:55.141Z,21.40
2019-01-20T09:46:55.130Z,29.50
2019-01-20T09:47:55.093Z,21.20
2019-01-20T09:48:55.061Z,20.50
2019-01-20T09:49:55.033Z,22.40
2019-01-20T09:50:55.004Z,26.50
2019-01-20T09:51:54.973Z,22.80
2019-01-20T09:52:54.955Z,24.10
2019-01-20T09:53:54.933Z,22.00
2019-01-20T09:54:54.889Z,23.10
2019-01-20T09:55:54.867Z,32.00
2019-01-20T09:56:54.831Z,19.40
2019-01-20T09:57:54.807Z,17.10
2019-01-20T09:58:54.783Z,14.80
2019-01-20T09:59:54.748Z,15.50
2019-01-20T10:00:54.727Z,14.80
2019-01-20T10:01:54.690Z,14.50
2019-01-20T10:02:54.672Z,12.20
2019-01-20T10:03:54.635Z,13.70
2019-01-20T10:04:54.607Z,12.60
2019-01-20T10:05:54.587Z,11.90
2019-01-20T10:06:54.552Z,12.80
2019-01-20T10:07:54.535Z,11.00
2019-01-20T10:08:54.497Z,12.60
2019-01-20T10:09:54.471Z,11.80
2019-01-20T10:10:54.441Z,11.10
2019-01-20T10:11:54.423Z,12.50
2019-01-20T10:12:54.388Z,11.50
2019-01-20T10:13:55.002Z,12.00
2019-01-20T10:14:54.335Z,11.80
2019-01-20T10:15:54.300Z,11.30
2019-01-20T10:16:54.271Z,11.80
2019-01-20T10:17:54.241Z,12.00
2019-01-20T10:18:54.235Z,11.70
2019-01-20T10:19:54.189Z,11.60
2019-01-20T10:20:54.167Z,11.50
2019-01-20T10:21:54.138Z,11.00
2019-01-20T10:22:54.113Z,11.50
2019-01-20T10:23:54.076Z,11.60
2019-01-20T10:24:54.047Z,10.90
2019-01-20T10:25:54.029Z,11.70
2019-01-20T10:26:54.008Z,11.70
2019-01-20T10:27:53.968Z,12.00
2019-01-20T10:28:53.941Z,11.80
2019-01-20T10:29:53.905Z,12.80
2019-01-20T10:30:53.881Z,13.90
2019-01-20T10:31:53.854Z,13.50
2019-01-20T10:32:53.837Z,13.10
2019-01-20T10:33:53.801Z,13.20
2019-01-20T10:34:53.775Z,12.90
2019-01-20T10:35:53.738Z,13.50
2019-01-20T10:36:53.709Z,14.20
2019-01-20T10:37:53.685Z,13.30
2019-01-20T10:38:53.656Z,12.90
2019-01-20T10:39:53.626Z,13.00
2019-01-20T10:40:53.595Z,12.20
2019-01-20T10:41:53.598Z,11.90
2019-01-20T10:42:53.546Z,12.40
2019-01-20T10:43:53.519Z,11.70
2019-01-20T10:44:53.493Z,12.30
2019-01-20T10:45:53.458Z,11.80
2019-01-20T10:46:53.430Z,12.30
2019-01-20T10:47:53.401Z,14.90
2019-01-20T10:48:53.377Z,13.90
2019-01-20T10:49:53.362Z,13.00
2019-01-20T10:50:53.322Z,12.80
2019-01-20T10:51:53.291Z,12.30
2019-01-20T10:52:53.263Z,12.20
2019-01-20T10:53:53.255Z,14.10
2019-01-20T10:54:53.212Z,13.80
2019-01-20T10:55:53.178Z,13.70
2019-01-20T10:56:53.155Z,13.40
2019-01-20T10:57:53.130Z,12.60
2019-01-20T10:58:53.096Z,12.60
2019-01-20T10:59:53.073Z,12.00
2019-01-20T11:00:53.047Z,11.40
2019-01-20T11:01:53.011Z,12.80
2019-01-20T11:02:52.987Z,12.60
2019-01-20T11:03:52.969Z,13.50
2019-01-20T11:04:57.295Z,13.30
2019-01-20T11:05:52.903Z,12.70
2019-01-20T11:06:52.882Z,12.30
2019-01-20T11:07:52.852Z,13.40
2019-01-20T11:08:52.834Z,11.90
2019-01-20T11:09:52.801Z,11.90
2019-01-20T11:10:52.771Z,11.90
2019-01-20T11:11:52.736Z,11.30
2019-01-20T11:12:52.705Z,12.60
2019-01-20T11:13:52.677Z,11.50
2019-01-20T11:14:52.664Z,10.70
2019-01-20T11:15:52.623Z,11.80
2019-01-20T11:16:52.606Z,11.40
2019-01-20T11:17:52.979Z,10.10
2019-01-20T11:18:52.548Z,11.50
2019-01-20T11:19:52.516Z,12.40
2019-01-20T11:20:52.494Z,11.80
2019-01-20T11:21:52.457Z,11.00
2019-01-20T11:22:52.438Z,10.70
2019-01-20T11:23:52.407Z,11.00
2019-01-20T11:24:52.395Z,11.00
2019-01-20T11:25:52.350Z,10.60
2019-01-20T11:26:52.327Z,10.50
2019-01-20T11:27:52.300Z,10.70
2019-01-20T11:28:52.277Z,11.50
2019-01-20T11:29:52.238Z,11.00
2019-01-20T11:30:52.210Z,10.40
2019-01-20T11:31:52.184Z,10.30
2019-01-20T11:32:52.156Z,10.20
2019-01-20T11:33:52.131Z,9.60
2019-01-20T11:34:52.104Z,9.60
2019-01-20T11:35:52.072Z,9.80
2019-01-20T11:36:52.044Z,8.70
2019-01-20T11:37:52.019Z,9.60
2019-01-20T11:38:52.005Z,9.60
2019-01-20T11:39:51.966Z,9.10
2019-01-20T11:40:51.936Z,9.40
2019-01-20T11:41:51.918Z,9.00
2019-01-20T11:42:51.890Z,8.80
2019-01-20T11:43:51.854Z,9.40
2019-01-20T11:44:51.833Z,9.80
2019-01-20T11:45:51.802Z,9.30
2019-01-20T11:46:51.774Z,8.40
2019-01-20T11:47:51.757Z,8.70
2019-01-20T11:48:51.719Z,9.40
2019-01-20T11:49:51.694Z,10.10
2019-01-20T11:50:51.665Z,11.30
2019-01-20T11:51:51.638Z,10.50
2019-01-20T11:52:51.639Z,9.40
2019-01-20T11:53:51.592Z,8.50
2019-01-20T11:54:51.568Z,9.10
2019-01-20T11:55:51.537Z,9.60
2019-01-20T11:56:51.503Z,9.30
2019-01-20T11:57:51.494Z,11.30
2019-01-20T11:58:51.460Z,12.30
2019-01-20T11:59:51.421Z,11.00
2019-01-20T12:00:51.415Z,10.10
2019-01-20T12:01:51.364Z,8.90
2019-01-20T12:02:51.334Z,9.50
2019-01-20T12:03:51.314Z,8.40
2019-01-20T12:04:51.279Z,8.60
2019-01-20T12:05:51.256Z,8.80
2019-01-20T12:06:51.230Z,8.70
2019-01-20T12:07:51.201Z,9.00
2019-01-20T12:08:51.177Z,9.80
2019-01-20T12:09:51.154Z,9.60
2019-01-20T12:10:51.116Z,9.70
2019-01-20T12:11:51.098Z,9.80
2019-01-20T12:12:51.070Z,8.20
2019-01-20T12:13:51.035Z,8.50
2019-01-20T12:14:51.017Z,8.90
2019-01-20T12:15:50.983Z,9.20
2019-01-20T12:16:50.956Z,9.20
2019-01-20T12:17:50.936Z,9.00
2019-01-20T12:18:50.907Z,9.40
2019-01-20T12:19:50.875Z,9.40
2019-01-20T12:20:50.869Z,8.90
2019-01-20T12:21:50.820Z,8.40
2019-01-20T12:22:50.792Z,9.60
2019-01-20T12:23:50.769Z,8.90
2019-01-20T12:24:50.748Z,8.30
2019-01-20T12:25:50.710Z,8.90
2019-01-20T12:26:50.692Z,9.20
2019-01-20T12:27:50.663Z,9.40
2019-01-20T12:28:50.635Z,8.70
2019-01-20T12:29:51.971Z,9.50
2019-01-20T12:30:50.603Z,8.50
2019-01-20T12:31:50.551Z,9.20
2019-01-20T12:32:50.520Z,9.60
2019-01-20T12:33:50.492Z,7.90
2019-01-20T12:34:50.468Z,8.90
2019-01-20T12:35:50.454Z,8.90
2019-01-20T12:36:50.412Z,16.40
2019-01-20T12:37:50.392Z,10.30
2019-01-20T12:38:50.355Z,9.20
2019-01-20T12:39:50.332Z,9.00
2019-01-20T12:40:50.308Z,9.30
2019-01-20T12:41:50.274Z,10.40
2019-01-20T12:42:50.249Z,12.80
2019-01-20T12:43:50.222Z,9.80
2019-01-20T12:44:50.193Z,10.50
2019-01-20T12:45:50.165Z,9.20
2019-01-20T12:46:50.151Z,10.50
2019-01-20T12:47:50.113Z,9.10
2019-01-20T12:48:50.088Z,11.40
2019-01-20T12:49:50.060Z,12.50
2019-01-20T12:50:50.039Z,9.70
2019-01-20T12:51:50.005Z,9.90
2019-01-20T12:52:50.006Z,12.60
2019-01-20T12:53:49.963Z,11.40
2019-01-20T12:54:49.928Z,11.10
2019-01-20T12:55:49.896Z,9.00
2019-01-20T12:56:49.877Z,10.30
2019-01-20T12:57:49.854Z,10.00
2019-01-20T12:58:49.815Z,9.60
2019-01-20T12:59:49.788Z,9.90